KLBF/LBF METAR and TAF weather

Enter ICAO airport designator
Station Type Date Time Source
KLBF METAR 2019/08/25 19:53 UTC NOAA

KLBF 251953Z AUTO 20007KT 10SM SCT023 BKN029 OVC035 25/20 A2984 RMK AO2 SLP081 T02500200


Station Type Date Time Source
KLBF Decoded METAR 2019/08/25 19:53 UTC NOAA

Station name not available
Aug 25, 2019 - 03:53 PM EDT / 2019.08.25 1953 UTC
Wind: from the SSW (200 degrees) at 8 MPH (7 KT):0
Visibility: 10 mile(s):0
Sky conditions: overcast
Temperature: 77.0 F (25.0 C)
Dew Point: 68.0 F (20.0 C)
Relative Humidity: 73%
Pressure (altimeter): 29.84 in. Hg (1010 hPa)
ob: KLBF 251953Z AUTO 20007KT 10SM SCT023 BKN029 OVC035 25/20 A2984 RMK AO2 SLP081 T02500200
cycle: 20

Station Type Date Time Source
KLBF TAF 2019/08/25 19:30 UTC NOAA

TAF
AMD KLBF 251927Z 2519/2618 19009KT P6SM SCT020 OVC035
FM260100 14008KT P6SM FEW150
FM260700 14007KT P6SM VCSH BKN026 WS020/20030KT
FM261100 01009KT P6SM VCSH BKN009
FM261200 01011KT P6SM SCT007

Example: see airport list